Latest Coastal Weather Observations for Cooktown

IDQ60701

Issued at 3:41 am EST Thursday 27 April 2017 (issued every 10 minutes, with the page automatically refreshed every 10 minutes)

About coastal observations | Map of coastal stations | Coastal observations for QLD | Marine services | Other Formats
Station Details ID: 031209 Name: COOKTOWN AIRPORT Lat: -15.45 Lon: 145.19 Height: 4.8 m
Data from the previous 72 hours. | See also: Recent months at Cooktown
Date/Time
EST
Temp
°C
Wind Pressure Rain since
9am
mm
Weather Cloud Vis
km
Sea
Height
m
Swell
Dir  Spd
kts
Gust
kts
hPa Trend Height
m
Period
s
Dir
27/03:30am 19.3 CALM 0 3 1011.6 - 0.0 - - 10 - - - -
27/03:00am 19.6 CALM 0 0 1011.5 - 0.0 - - 9 - - - -
27/02:44am 19.7 CALM 0 0 1011.7 - 0.0 - - 10 - - - -
27/02:30am 20.1 CALM 0 0 1011.8 - 0.0 - - 1 - - - -
27/02:21am 20.0 CALM 0 0 1011.9 - 0.0 - - 3 - - - -
27/02:00am 20.1 NNW 2 4 1012.1 - 0.0 - - 10 - - - -
27/01:30am 20.5 WNW 3 4 1012.4 - 0.0 - - 10 - - - -
27/01:00am 20.6 CALM 0 0 1012.6 - 0.0 - - 10 - - - -
27/12:56am 20.9 CALM 0 0 1012.6 - 0.0 - - 10 - - - -
27/12:43am 21.0 CALM 0 0 1012.8 - 0.0 - Partly cloudy 5 - - - -
27/12:40am 21.0 CALM 0 0 1012.9 - 0.0 - Partly cloudy 7 - - - -
27/12:30am 21.2 CALM 0 0 1013.0 - 0.0 - Partly cloudy 5 - - - -
27/12:20am 21.1 CALM 0 0 1013.1 - 0.0 - Partly cloudy 5 - - - -
27/12:00am 21.4 WNW 3 4 1013.3 - 0.0 - Mostly clear 10 - - - -
 
Date/Time
EST
Temp
°C
Wind Pressure Rain since
9am
mm
Weather Cloud Vis
km
Sea
Height
m
Swell
Dir  Spd
kts
Gust
kts
hPa Trend Height
m
Period
s
Dir
26/11:30pm 21.1 WNW 4 5 1013.4 - 0.0 - - 10 - - - -
26/11:00pm 21.5 WNW 3 5 1013.6 - 0.0 - - 10 - - - -
26/10:30pm 21.3 CALM 0 0 1013.8 - 0.0 - - 10 - - - -
26/10:00pm 21.9 CALM 0 0 1013.8 - 0.0 - - 10 - - - -
26/09:30pm 21.9 CALM 0 0 1013.7 - 0.0 - - 10 - - - -
26/09:00pm 22.6 CALM 0 0 1013.6 - 0.0 - - 10 - - - -
26/08:30pm 22.7 CALM 0 0 1013.6 - 0.0 - - 10 - - - -
26/08:00pm 23.0 CALM 0 0 1013.5 - 0.0 - - 10 - - - -
26/07:30pm 23.9 SE 3 6 1013.0 - 0.0 - - 10 - - - -
26/07:00pm 24.3 SE 3 4 1012.6 - 0.0 - - 10 - - - -
26/06:30pm 24.7 SE 5 7 1012.0 - 0.0 - - 10 - - - -
26/06:00pm 25.3 ESE 7 9 1011.5 - 0.0 - Mostly clear 10 - - - -
26/05:30pm 25.8 SE 8 11 1011.2 - 0.0 - - 10 - - - -
26/05:00pm 26.3 SE 8 12 1011.0 - 0.0 - - 10 - - - -
26/04:30pm 26.6 ESE 9 15 1010.8 - 0.0 - - 10 - - - -
26/04:00pm 27.2 ESE 10 15 1010.9 - 0.0 - Partly cloudy 10 - - - -
26/03:30pm 27.8 ESE 11 16 1011.0 - 0.0 - Partly cloudy 10 - - - -
26/03:00pm 28.0 E 13 17 1011.0 - 0.0 - Mostly clear 10 - - - -
26/02:30pm 28.2 E 13 17 1011.2 - 0.0 - - 10 - - - -
26/02:00pm 28.5 E 14 18 1011.6 - 0.0 - Partly cloudy 10 - - - -
26/01:30pm 28.3 E 11 15 1012.1 - 0.0 - Partly cloudy 10 - - - -
26/01:00pm 28.4 ESE 10 15 1012.4 - 0.0 - - 10 - - - -
26/12:30pm 28.6 ESE 10 14 1012.7 - 0.0 - - 10 - - - -
26/12:00pm 28.4 E 11 15 1013.3 - 0.0 - Partly cloudy 10 - - - -
26/11:30am 28.0 ESE 9 14 1013.8 - 0.0 - Partly cloudy 10 - - - -
26/11:00am 27.4 SE 9 13 1014.3 - 0.0 - Partly cloudy 10 - - - -
26/10:30am 27.6 SE 10 14 1014.6 - 0.0 - Partly cloudy 10 - - - -
26/10:00am 27.0 ESE 9 14 1014.9 - 0.0 - Partly cloudy 10 - - - -
26/09:30am 26.7 SE 9 15 1015.0 - 0.0 - Partly cloudy 10 - - - -
26/09:00am 26.4 ESE 10 13 1014.7 R 0.4 Fine Partly cloudy 35 - - - -
26/08:30am 26.0 SE 8 11 1014.4 - 0.4 - - 10 - - - -
26/08:00am 25.1 SE 4 6 1014.2 - 0.4 - - 10 - - - -
26/07:30am 24.1 SSE 4 6 1014.0 - 0.4 - - 10 - - - -
26/07:00am 23.6 SSE 4 6 1013.7 - 0.4 - - 10 - - - -
26/06:30am 23.2 SSE 5 6 1013.1 - 0.4 - Partly cloudy 10 - - - -
26/06:00am 23.7 SSE 4 5 1012.8 - 0.4 - Partly cloudy 10 - - - -
26/05:30am 23.8 SE 5 6 1012.6 - 0.4 - Partly cloudy 10 - - - -
26/05:00am 24.1 SSE 6 8 1012.3 - 0.4 - Partly cloudy 10 - - - -
26/04:30am 24.3 SE 6 10 1012.2 - 0.4 - Partly cloudy 10 - - - -
26/04:00am 24.4 SE 7 10 1012.1 - 0.4 - Partly cloudy 10 - - - -
26/03:30am 24.7 SE 7 11 1012.4 - 0.4 - Partly cloudy 10 - - - -
26/03:00am 24.9 SE 7 13 1012.5 - 0.4 - Partly cloudy 10 - - - -
26/02:30am 25.3 ESE 8 14 1012.7 - 0.4 - Partly cloudy 10 - - - -
26/02:00am 25.2 ESE 8 11 1013.0 - 0.4 - Partly cloudy 10 - - - -
26/01:30am 25.5 ESE 8 11 1013.2 - 0.4 - Partly cloudy 10 - - - -
26/01:00am 25.4 ESE 9 15 1013.6 - 0.4 - Partly cloudy 10 - - - -
26/12:30am 25.4 ESE 7 11 1014.0 - 0.4 - Partly cloudy 10 - - - -
26/12:00am 25.6 SE 9 14 1014.0 - 0.4 - Partly cloudy 10 - - - -
 
Date/Time
EST
Temp
°C
Wind Pressure Rain since
9am
mm
Weather Cloud Vis
km
Sea
Height
m
Swell
Dir  Spd
kts
Gust
kts
hPa Trend Height
m
Period
s
Dir
25/11:30pm 25.4 SE 8 11 1014.2 - 0.4 - - 10 - - - -
25/11:00pm 25.7 SE 9 16 1014.3 - 0.4 - Partly cloudy 10 - - - -
25/10:30pm 25.3 SE 8 11 1014.5 - 0.4 - Partly cloudy 10 - - - -
25/10:00pm 25.4 ESE 8 12 1014.6 - 0.4 - Cloudy 10 - - - -
25/09:30pm 25.3 ESE 8 13 1014.8 - 0.4 - Partly cloudy 10 - - - -
25/09:00pm 24.9 ESE 11 15 1014.5 - 0.4 - Cloudy 10 - - - -
25/08:30pm 25.2 ESE 9 14 1014.3 - 0.4 - Partly cloudy 10 - - - -
25/08:07pm 25.0 SE 4 6 1014.2 - 0.4 - Partly cloudy 10 - - - -
25/08:00pm 24.9 SSE 4 6 1014.1 - 0.4 - Partly cloudy 10 - - - -
25/07:30pm 25.3 SE 7 13 1013.8 - 0.4 - Partly cloudy 10 - - - -
25/07:26pm 25.3 SE 8 13 1013.8 - 0.4 - Partly cloudy 10 - - - -
25/07:00pm 25.0 SSE 6 9 1013.3 - 0.4 - Partly cloudy 10 - - - -
25/06:30pm 25.2 SE 5 8 1013.0 - 0.4 - Partly cloudy 10 - - - -
25/06:00pm 25.2 SE 5 7 1012.7 - 0.4 - Cloudy 10 - - - -
25/05:30pm 25.3 SE 9 13 1012.4 - 0.4 - Partly cloudy 10 - - - -
25/05:00pm 25.0 SE 6 10 1012.3 - 0.4 - Partly cloudy 10 - - - -
25/04:40pm 24.9 SE 9 14 1012.1 - 0.4 - Partly cloudy 10 - - - -
25/04:30pm 25.0 SE 9 18 1012.0 - 0.4 - Partly cloudy 5 - - - -
25/04:25pm 25.0 E 13 19 1012.0 - 0.4 - Partly cloudy 5 - - - -
25/04:00pm 27.2 SE 10 15 1011.8 - 0.2 - Cloudy 10 - - - -
25/03:30pm 27.8 SE 11 19 1011.8 - 0.2 - Partly cloudy 10 - - - -
25/03:00pm 27.6 SE 13 18 1011.7 - 0.2 - Cloudy 10 - - - -
25/02:30pm 27.7 SE 13 17 1012.1 - 0.2 - Partly cloudy 10 - - - -
25/02:00pm 27.1 ESE 11 18 1012.4 - 0.2 - Partly cloudy 10 - - - -
25/01:30pm 27.5 ESE 13 19 1012.5 - 0.2 - Partly cloudy 10 - - - -
25/01:00pm 27.9 SE 12 18 1012.8 - 0.2 - Partly cloudy 10 - - - -
25/12:30pm 27.0 ESE 14 24 1013.4 - 0.2 - Partly cloudy 10 - - - -
25/12:00pm 27.2 ESE 12 17 1013.5 - 0.2 - Cloudy 10 - - - -
25/11:30am 27.8 SE 13 20 1013.9 - 0.2 - Partly cloudy 10 - - - -
25/11:00am 28.5 SE 13 19 1014.5 - 0.2 - Partly cloudy 10 - - - -
25/10:30am 27.7 SE 13 19 1014.9 - 0.0 - Partly cloudy 10 - - - -
25/10:00am 26.8 SE 13 18 1015.2 - 0.0 - Partly cloudy 10 - - - -
25/09:30am 27.5 ESE 10 18 1015.2 - 0.0 - Partly cloudy 10 - - - -
25/09:00am 26.4 ESE 11 16 1014.8 - 0.0 - Mostly clear 10 - - - -
25/08:30am 26.4 ESE 12 20 1014.7 - 0.0 - - 10 - - - -
25/08:00am 26.0 SE 8 13 1014.4 - 0.0 - - 10 - - - -
25/07:30am 25.0 SE 8 12 1014.4 - 0.0 - Partly cloudy 10 - - - -
25/07:00am 24.0 SE 6 11 1013.9 - 0.0 - Partly cloudy 10 - - - -
25/06:48am 23.9 ESE 9 13 1013.9 - 0.0 - Partly cloudy 5 - - - -
25/06:30am 24.5 ESE 8 15 1013.6 - 0.0 - Partly cloudy 10 - - - -
25/06:00am 24.4 SE 7 10 1013.1 - 0.0 - Mostly cloudy 10 - - - -
25/05:30am 24.4 SE 7 10 1012.9 - 0.0 - Cloudy 10 - - - -
25/05:06am 24.2 SE 5 8 1012.6 - 0.0 - Partly cloudy 10 - - - -
25/05:00am 24.4 SE 6 9 1012.6 - 0.0 - Partly cloudy 10 - - - -
25/04:42am 24.2 SE 8 11 1012.6 - 0.0 - Partly cloudy 10 - - - -
25/04:30am 24.1 SE 6 9 1012.6 - 0.0 - Partly cloudy 10 - - - -
25/04:00am 23.6 SE 5 7 1012.4 - 0.0 - - 10 - - - -
25/03:30am 23.5 SE 5 7 1012.4 - 0.0 - Partly cloudy 10 - - - -
25/03:00am 23.8 SE 7 11 1012.2 - 0.0 - Cloudy 10 - - - -
25/02:30am 23.8 SE 8 13 1012.4 - 0.0 - Partly cloudy 10 - - - -
25/02:27am 23.8 SE 8 13 1012.4 - 0.0 - Partly cloudy 10 - - - -
25/02:16am 24.0 SE 11 16 1012.5 - 0.0 - Partly cloudy 5 - - - -
25/02:00am 25.0 ESE 8 13 1012.6 - 0.0 - Partly cloudy 10 - - - -
25/01:30am 25.1 SE 10 21 1012.8 - 0.0 - Partly cloudy 10 - - - -
25/01:00am 25.2 SE 10 16 1013.2 - 0.0 - Partly cloudy 10 - - - -
25/12:30am 25.6 SE 10 15 1013.4 - 0.0 - Partly cloudy 10 - - - -
25/12:00am 25.6 SE 10 14 1013.7 - 0.0 - Mostly clear 10 - - - -
 
Date/Time
EST
Temp
°C
Wind Pressure Rain since
9am
mm
Weather Cloud Vis
km
Sea
Height
m
Swell
Dir  Spd
kts
Gust
kts
hPa Trend Height
m
Period
s
Dir
24/11:30pm 25.6 SE 10 16 1013.9 - 0.0 - - 10 - - - -
24/11:00pm 25.5 SE 7 14 1014.1 - 0.0 - Partly cloudy 10 - - - -
24/10:30pm 25.6 SE 10 16 1014.4 - 0.0 - Partly cloudy 10 - - - -
24/10:00pm 25.9 SE 10 17 1014.7 - 0.0 - Partly cloudy 10 - - - -
24/09:30pm 25.9 ESE 11 21 1014.8 - 0.0 - Partly cloudy 10 - - - -
24/09:00pm 26.0 SE 11 19 1014.5 - 0.0 - Partly cloudy 10 - - - -
24/08:30pm 25.8 SE 10 18 1014.5 - 0.0 - Partly cloudy 10 - - - -
24/08:00pm 25.8 SE 9 16 1014.0 - 0.0 - - 10 - - - -
24/07:30pm 25.7 SE 9 17 1013.7 - 0.0 - Partly cloudy 10 - - - -
24/07:00pm 25.8 SE 10 19 1013.5 - 0.0 - Partly cloudy 10 - - - -
24/06:30pm 25.7 SE 9 13 1013.6 - 0.0 - - 10 - - - -
24/06:00pm 26.1 SE 9 13 1013.2 - 0.0 - Mostly cloudy 10 - - - -
24/05:30pm 26.5 SE 10 19 1013.1 - 0.0 - Partly cloudy 10 - - - -
24/05:00pm 27.0 SE 11 19 1012.9 - 0.0 - Partly cloudy 10 - - - -
24/04:30pm 27.1 ESE 12 19 1012.8 - 0.0 - Partly cloudy 10 - - - -
24/04:00pm 27.4 SE 14 22 1012.6 - 0.0 - Partly cloudy 10 - - - -
24/03:30pm 27.9 SE 14 20 1012.5 - 0.0 - Partly cloudy 10 - - - -
24/03:00pm 27.9 SE 13 20 1012.3 - 0.0 - Partly cloudy 10 - - - -
24/02:30pm 28.4 ESE 15 23 1012.5 - 0.0 - Partly cloudy 10 - - - -
24/02:00pm 27.3 SE 15 22 1012.8 - 0.0 - Partly cloudy 10 - - - -
24/01:30pm 28.4 SE 14 24 1013.1 - 0.0 - Partly cloudy 10 - - - -
24/01:00pm 28.3 SE 14 20 1013.5 - 0.0 - Partly cloudy 10 - - - -
24/12:30pm 28.5 SE 13 21 1014.0 - 0.0 - Partly cloudy 10 - - - -
24/12:00pm 28.0 SE 14 21 1014.2 - 0.0 - Mostly clear 10 - - - -
24/11:30am 28.5 ESE 14 19 1014.7 - 0.0 - - 10 - - - -
24/11:02am 28.1 ESE 15 25 1014.8 - 0.0 - - 10 - - - -
24/11:00am 28.2 ESE 14 25 1014.9 - 0.0 - - 10 - - - -
24/10:30am 28.0 ESE 14 23 1015.1 - 0.0 - Partly cloudy 10 - - - -
24/10:00am 28.1 ESE 15 22 1015.3 - 0.0 - Cloudy 10 - - - -
24/09:30am 27.0 ESE 15 23 1015.2 - 0.0 - Partly cloudy 10 - - - -
24/09:00am 26.9 ESE 13 19 1014.7 R 0.0 Fine Partly cloudy 30 - - - -
24/08:30am 26.6 ESE 14 22 1014.5 - 0.0 - Partly cloudy 10 - - - -
24/08:09am 26.2 ESE 15 25 1014.3 - 0.0 - Partly cloudy 10 - - - -
24/08:00am 26.1 ESE 12 19 1014.3 - 0.0 - Partly cloudy 10 - - - -
24/07:50am 26.3 ESE 15 25 1014.1 - 0.0 - Partly cloudy 10 - - - -
24/07:30am 25.5 SE 9 18 1013.8 - 0.0 - Partly cloudy 10 - - - -
24/07:00am 24.8 SE 11 16 1013.7 - 0.0 - Partly cloudy 10 - - - -
24/06:30am 25.6 SE 11 15 1013.2 - 0.0 - Partly cloudy 10 - - - -
24/06:00am 25.4 SE 10 15 1012.7 - 0.0 - Cloudy 10 - - - -
24/05:30am 25.5 SE 11 18 1012.5 - 0.0 - Partly cloudy 10 - - - -
24/05:00am 24.5 ESE 11 17 1012.5 - 0.0 - Partly cloudy 7 - - - -
24/04:30am 25.5 SE 11 20 1012.5 - 0.0 - Partly cloudy 10 - - - -
24/04:00am 25.0 SE 8 11 1012.5 - 0.0 - Partly cloudy 10 - - - -

Other Formats:

Comma delimited format used in spreadsheet applications
http://www.bom.gov.au/fwo/IDQ60701/IDQ60701.95283.axf

JavaScript Object Notation format (JSON) in row-major order
http://www.bom.gov.au/fwo/IDQ60701/IDQ60701.95283.json